Isola Bianca — ICLD — position and weather

sailwx.info

Track history (hours):
 
Tides and Currents Weather Stations Pressure Air Temp Water Temp Dewpoint Dewpoint Depression Visibility Wind Speed Wind Dir Waves Ship Positions

Isola Bianca

Last reported at 2016-Aug-29 12:32 UTC. Time now 2016-Aug-29 12:57 UTC.
Position N 55°24' W 000°47'.

Length 183 m; draft 8.5 m.

Type: Ship. MMSI: 247245200.

Date/timePositionNaut miles runAvg speedWind from/ knotsBaromVisibWave heightAir tempDewpointWater temp
2016-Aug-29 12:32N 55°24' W 000°47'1212.5
2016-Aug-29 11:33N 55°33' W 001°04'1312.7
2016-Aug-29 10:33N 55°41' W 001°20'1512.8
2016-Aug-29 09:23N 55°51' W 001°41'1012.3
2016-Aug-29 08:33N 55°56' W 001°56'1212.1
2016-Aug-29 07:33N 56°02' W 002°15'1212.1
2016-Aug-29 06:33N 56°07' W 002°35'1212.2
2016-Aug-29 05:33N 56°05' W 002°56'10 9.9
2016-Aug-29 04:33N 56°02' W 003°13'3 0.1
2016-Aug-27 17:33N 56°01' W 003°19'8 8.4
2016-Aug-27 16:34N 56°04' W 003°05'4 4.2
2016-Aug-27 15:33N 56°03' W 002°57'0 0.1
2016-Aug-27 14:33N 56°03' W 002°57'0 0.0
2016-Aug-27 13:33N 56°03' W 002°57'0 0.1
2016-Aug-27 12:33N 56°03' W 002°57'0 0.0
2016-Aug-27 11:33N 56°03' W 002°57'0 0.1
2016-Aug-27 10:33N 56°03' W 002°57'0 0.1
2016-Aug-27 09:33N 56°03' W 002°57'0 0.0
2016-Aug-27 08:33N 56°03' W 002°57'0 0.1
2016-Aug-27 07:33N 56°03' W 002°57'0 0.0
2016-Aug-27 06:33N 56°03' W 002°57'0 0.1
2016-Aug-27 04:33N 56°03' W 002°57'0 0.0
2016-Aug-27 03:33N 56°03' W 002°57'0 0.0
2016-Aug-27 02:33N 56°03' W 002°57'0 0.0
2016-Aug-27 01:33N 56°03' W 002°57'0 0.0
2016-Aug-27 00:33N 56°03' W 002°57'0 0.0
2016-Aug-26 23:33N 56°03' W 002°57'0 0.0
2016-Aug-26 22:33N 56°03' W 002°57'0 0.0
2016-Aug-26 21:33N 56°03' W 002°57'0 0.1
2016-Aug-26 20:33N 56°03' W 002°57'5 4.8
2016-Aug-26 19:33N 56°05' W 002°49'9 9.2
2016-Aug-26 18:33N 56°07' W 002°33'10 9.8
2016-Aug-26 17:33N 56°05' W 002°16'9 9.0
2016-Aug-26 16:33N 56°02' W 002°00'88 9.8
2016-Aug-26 07:33N 55°06' E 000°01'1411.0
2016-Aug-26 06:20N 54°57' E 000°18'13511.3
2016-Aug-25 18:20N 53°14' E 002°48'1012.6
2016-Aug-25 17:33N 53°06' E 002°41'1212.3
2016-Aug-25 16:33N 52°53' E 002°42'1211.7
2016-Aug-25 15:33N 52°42' E 002°42'1211.2
2016-Aug-25 14:29N 52°30' E 002°41'1410.8
2016-Aug-25 13:10N 52°16' E 002°41'710.9
2016-Aug-25 12:33N 52°09' E 002°40'1110.9
2016-Aug-25 11:33N 51°58' E 002°39'1110.7
2016-Aug-25 10:33N 51°48' E 002°37'1010.2
2016-Aug-25 09:33N 51°39' E 002°27'1110.7
2016-Aug-25 08:33N 51°31' E 002°16'10 9.8
2016-Aug-25 07:33N 51°21' E 002°17'1010.1
2016-Aug-25 06:33N 51°23' E 002°33'1 0.6
2016-Aug-25 04:33N 51°24' E 002°34'0 0.1
2016-Aug-25 03:33N 51°24' E 002°34'0 0.1
2016-Aug-25 02:33N 51°24' E 002°34'0 0.0
2016-Aug-25 01:33N 51°24' E 002°34'0 0.0
2016-Aug-25 00:33N 51°24' E 002°34'0 0.1
2016-Aug-24 23:33N 51°24' E 002°34'0 0.0
2016-Aug-24 22:33N 51°24' E 002°34'0 0.1
2016-Aug-24 21:33N 51°24' E 002°34'0 0.1
2016-Aug-24 20:33N 51°24' E 002°34'0 0.0
2016-Aug-24 19:33N 51°24' E 002°34'0 0.0
2016-Aug-24 18:33N 51°24' E 002°34'0 0.0
2016-Aug-24 17:30N 51°24' E 002°34'0 0.0
2016-Aug-24 16:33N 51°24' E 002°34'0 0.1
2016-Aug-24 15:33N 51°24' E 002°34'0 0.1
2016-Aug-24 14:33N 51°24' E 002°34'0 0.0
2016-Aug-24 13:30N 51°24' E 002°34'0 0.0
2016-Aug-24 12:33N 51°24' E 002°34'0 0.0
2016-Aug-24 11:33N 51°24' E 002°34'0 0.0
2016-Aug-24 10:33N 51°24' E 002°34'0 0.1
2016-Aug-24 09:33N 51°24' E 002°34'0 0.1
2016-Aug-24 08:33N 51°24' E 002°34'0 0.1
2016-Aug-24 07:33N 51°24' E 002°34'0 0.0
2016-Aug-24 06:33N 51°24' E 002°34'1 0.7
2016-Aug-24 04:33N 51°23' E 002°33'1111.1
2016-Aug-24 03:33N 51°18' E 002°17'1414.1
2016-Aug-24 02:34N 51°12' E 001°57'1413.5
2016-Aug-24 01:33N 51°04' E 001°39'1312.1
2016-Aug-24 00:28N 50°53' E 001°27'1011.4
2016-Aug-23 23:33N 50°43' E 001°22'1211.0
2016-Aug-23 22:29N 50°35' E 001°09'3311.1
2016-Aug-23 19:33N 50°22' E 000°21'1110.8
2016-Aug-23 18:33N 50°19' E 000°05'1110.6
2016-Aug-23 17:33N 50°17' W 000°11'1010.4
2016-Aug-23 16:33N 50°14' W 000°27'1110.6
2016-Aug-23 15:34N 50°11' W 000°43'1211.5
2016-Aug-23 14:33N 50°08' W 001°00'1713.0
2016-Aug-23 13:13N 50°04' W 001°26'812.7
2016-Aug-23 12:33N 50°02' W 001°39'4013.3
2016-Aug-23 09:33N 49°52' W 002°39'1312.8
2016-Aug-23 08:33N 49°48' W 002°57'1313.0
2016-Aug-23 07:33N 49°41' W 003°15'1312.8
2016-Aug-23 06:33N 49°35' W 003°32'1212.2
2016-Aug-23 05:33N 49°29' W 003°48'1211.5
2016-Aug-23 04:33N 49°24' W 004°04'1110.8
2016-Aug-23 03:33N 49°18' W 004°18'1010.3
2016-Aug-23 02:33N 49°12' W 004°31'10 9.9
2016-Aug-23 01:33N 49°07' W 004°44'10 9.8
2016-Aug-23 00:33N 49°02' W 004°57'1010.2
2016-Aug-22 23:33N 48°57' W 005°11'1110.6
2016-Aug-22 22:33N 48°52' W 005°24'1211.8
2016-Aug-22 21:33N 48°44' W 005°38'1212.3
2016-Aug-22 20:33N 48°33' W 005°47'1412.6
2016-Aug-22 19:27N 48°21' W 005°57'1213.1
2016-Aug-22 18:32N 48°11' W 006°06'1313.5
2016-Aug-22 17:33N 47°59' W 006°17'1413.3
2016-Aug-22 16:32N 47°48' W 006°27'3013.0
2016-Aug-22 14:12N 47°20' W 006°47'1112.4
2016-Aug-22 13:19N 47°11' W 006°55'2712.7
2016-Aug-22 11:09N 46°47' W 007°14'8412.6
2016-Aug-22 04:31N 45°33' W 008°12'1212.5
2016-Aug-22 03:33N 45°23' W 008°20'1312.8
2016-Aug-22 02:33N 45°11' W 008°29'1212.5
2016-Aug-22 01:33N 45°01' W 008°37'1212.3
2016-Aug-22 00:33N 44°50' W 008°45'34111.3
2016-Aug-20 18:30N 39°16' W 010°16'1111.6
2016-Aug-20 17:34N 39°05' W 010°17'1211.8
2016-Aug-20 16:33N 38°53' W 010°19'1212.0
2016-Aug-20 15:33N 38°41' W 010°20'1211.8
2016-Aug-20 14:33N 38°29' W 010°21'1211.7
2016-Aug-20 13:33N 38°18' W 010°23'1211.6
2016-Aug-20 12:33N 38°06' W 010°25'1211.6
2016-Aug-20 11:33N 37°55' W 010°27'1111.4
2016-Aug-20 10:33N 37°43' W 010°28'1211.6
2016-Aug-20 09:30N 37°31' W 010°30'1311.9
2016-Aug-20 08:27N 37°19' W 010°32'1111.8
2016-Aug-20 07:33N 37°08' W 010°32'2612.1
2016-Aug-20 05:22N 36°42' W 010°34'  
Track history (hours):
 
Tides and Currents Weather Stations Pressure Air Temp Water Temp Dewpoint Dewpoint Depression Visibility Wind Speed Wind Dir Waves Ship Positions

Isola Bianca

Last reported at 2016-Aug-29 12:32 UTC. Time now 2016-Aug-29 12:57 UTC.
Position N 55°24' W 000°47'.

Length 183 m; draft 8.5 m.

Type: Ship. MMSI: 247245200.

Date/timePositionNaut miles runAvg speedWind from/ knotsBaromVisibWave heightAir tempDewpointWater temp
2016-Aug-29 12:32N 55°24' W 000°47'1212.5
2016-Aug-29 11:33N 55°33' W 001°04'1312.7
2016-Aug-29 10:33N 55°41' W 001°20'1512.8
2016-Aug-29 09:23N 55°51' W 001°41'1012.3
2016-Aug-29 08:33N 55°56' W 001°56'1212.1
2016-Aug-29 07:33N 56°02' W 002°15'1212.1
2016-Aug-29 06:33N 56°07' W 002°35'1212.2
2016-Aug-29 05:33N 56°05' W 002°56'10 9.9
2016-Aug-29 04:33N 56°02' W 003°13'3 0.1
2016-Aug-27 17:33N 56°01' W 003°19'8 8.4
2016-Aug-27 16:34N 56°04' W 003°05'4 4.2
2016-Aug-27 15:33N 56°03' W 002°57'0 0.1
2016-Aug-27 14:33N 56°03' W 002°57'0 0.0
2016-Aug-27 13:33N 56°03' W 002°57'0 0.1
2016-Aug-27 12:33N 56°03' W 002°57'0 0.0
2016-Aug-27 11:33N 56°03' W 002°57'0 0.1
2016-Aug-27 10:33N 56°03' W 002°57'0 0.1
2016-Aug-27 09:33N 56°03' W 002°57'0 0.0
2016-Aug-27 08:33N 56°03' W 002°57'0 0.1
2016-Aug-27 07:33N 56°03' W 002°57'0 0.0
2016-Aug-27 06:33N 56°03' W 002°57'0 0.1
2016-Aug-27 04:33N 56°03' W 002°57'0 0.0
2016-Aug-27 03:33N 56°03' W 002°57'0 0.0
2016-Aug-27 02:33N 56°03' W 002°57'0 0.0
2016-Aug-27 01:33N 56°03' W 002°57'0 0.0
2016-Aug-27 00:33N 56°03' W 002°57'0 0.0
2016-Aug-26 23:33N 56°03' W 002°57'0 0.0
2016-Aug-26 22:33N 56°03' W 002°57'0 0.0
2016-Aug-26 21:33N 56°03' W 002°57'0 0.1
2016-Aug-26 20:33N 56°03' W 002°57'5 4.8
2016-Aug-26 19:33N 56°05' W 002°49'9 9.2
2016-Aug-26 18:33N 56°07' W 002°33'10 9.8
2016-Aug-26 17:33N 56°05' W 002°16'9 9.0
2016-Aug-26 16:33N 56°02' W 002°00'88 9.8
2016-Aug-26 07:33N 55°06' E 000°01'1411.0
2016-Aug-26 06:20N 54°57' E 000°18'13511.3
2016-Aug-25 18:20N 53°14' E 002°48'1012.6
2016-Aug-25 17:33N 53°06' E 002°41'1212.3
2016-Aug-25 16:33N 52°53' E 002°42'1211.7
2016-Aug-25 15:33N 52°42' E 002°42'1211.2
2016-Aug-25 14:29N 52°30' E 002°41'1410.8
2016-Aug-25 13:10N 52°16' E 002°41'710.9
2016-Aug-25 12:33N 52°09' E 002°40'1110.9
2016-Aug-25 11:33N 51°58' E 002°39'1110.7
2016-Aug-25 10:33N 51°48' E 002°37'1010.2
2016-Aug-25 09:33N 51°39' E 002°27'1110.7
2016-Aug-25 08:33N 51°31' E 002°16'10 9.8
2016-Aug-25 07:33N 51°21' E 002°17'1010.1
2016-Aug-25 06:33N 51°23' E 002°33'1 0.6
2016-Aug-25 04:33N 51°24' E 002°34'0 0.1
2016-Aug-25 03:33N 51°24' E 002°34'0 0.1
2016-Aug-25 02:33N 51°24' E 002°34'0 0.0
2016-Aug-25 01:33N 51°24' E 002°34'0 0.0
2016-Aug-25 00:33N 51°24' E 002°34'0 0.1
2016-Aug-24 23:33N 51°24' E 002°34'0 0.0
2016-Aug-24 22:33N 51°24' E 002°34'0 0.1
2016-Aug-24 21:33N 51°24' E 002°34'0 0.1
2016-Aug-24 20:33N 51°24' E 002°34'0 0.0
2016-Aug-24 19:33N 51°24' E 002°34'0 0.0
2016-Aug-24 18:33N 51°24' E 002°34'0 0.0
2016-Aug-24 17:30N 51°24' E 002°34'0 0.0
2016-Aug-24 16:33N 51°24' E 002°34'0 0.1
2016-Aug-24 15:33N 51°24' E 002°34'0 0.1
2016-Aug-24 14:33N 51°24' E 002°34'0 0.0
2016-Aug-24 13:30N 51°24' E 002°34'0 0.0
2016-Aug-24 12:33N 51°24' E 002°34'0 0.0
2016-Aug-24 11:33N 51°24' E 002°34'0 0.0
2016-Aug-24 10:33N 51°24' E 002°34'0 0.1
2016-Aug-24 09:33N 51°24' E 002°34'0 0.1
2016-Aug-24 08:33N 51°24' E 002°34'0 0.1
2016-Aug-24 07:33N 51°24' E 002°34'0 0.0
2016-Aug-24 06:33N 51°24' E 002°34'1 0.7
2016-Aug-24 04:33N 51°23' E 002°33'1111.1
2016-Aug-24 03:33N 51°18' E 002°17'1414.1
2016-Aug-24 02:34N 51°12' E 001°57'1413.5
2016-Aug-24 01:33N 51°04' E 001°39'1312.1
2016-Aug-24 00:28N 50°53' E 001°27'1011.4
2016-Aug-23 23:33N 50°43' E 001°22'1211.0
2016-Aug-23 22:29N 50°35' E 001°09'3311.1
2016-Aug-23 19:33N 50°22' E 000°21'1110.8
2016-Aug-23 18:33N 50°19' E 000°05'1110.6
2016-Aug-23 17:33N 50°17' W 000°11'1010.4
2016-Aug-23 16:33N 50°14' W 000°27'1110.6
2016-Aug-23 15:34N 50°11' W 000°43'1211.5
2016-Aug-23 14:33N 50°08' W 001°00'1713.0
2016-Aug-23 13:13N 50°04' W 001°26'812.7
2016-Aug-23 12:33N 50°02' W 001°39'4013.3
2016-Aug-23 09:33N 49°52' W 002°39'1312.8
2016-Aug-23 08:33N 49°48' W 002°57'1313.0
2016-Aug-23 07:33N 49°41' W 003°15'1312.8
2016-Aug-23 06:33N 49°35' W 003°32'1212.2
2016-Aug-23 05:33N 49°29' W 003°48'1211.5
2016-Aug-23 04:33N 49°24' W 004°04'1110.8
2016-Aug-23 03:33N 49°18' W 004°18'1010.3
2016-Aug-23 02:33N 49°12' W 004°31'10 9.9
2016-Aug-23 01:33N 49°07' W 004°44'10 9.8
2016-Aug-23 00:33N 49°02' W 004°57'1010.2
2016-Aug-22 23:33N 48°57' W 005°11'1110.6
2016-Aug-22 22:33N 48°52' W 005°24'1211.8
2016-Aug-22 21:33N 48°44' W 005°38'1212.3
2016-Aug-22 20:33N 48°33' W 005°47'1412.6
2016-Aug-22 19:27N 48°21' W 005°57'1213.1
2016-Aug-22 18:32N 48°11' W 006°06'1313.5
2016-Aug-22 17:33N 47°59' W 006°17'1413.3
2016-Aug-22 16:32N 47°48' W 006°27'3013.0
2016-Aug-22 14:12N 47°20' W 006°47'1112.4
2016-Aug-22 13:19N 47°11' W 006°55'2712.7
2016-Aug-22 11:09N 46°47' W 007°14'8412.6
2016-Aug-22 04:31N 45°33' W 008°12'1212.5
2016-Aug-22 03:33N 45°23' W 008°20'1312.8
2016-Aug-22 02:33N 45°11' W 008°29'1212.5
2016-Aug-22 01:33N 45°01' W 008°37'1212.3
2016-Aug-22 00:33N 44°50' W 008°45'34111.3
2016-Aug-20 18:30N 39°16' W 010°16'1111.6
2016-Aug-20 17:34N 39°05' W 010°17'1211.8
2016-Aug-20 16:33N 38°53' W 010°19'1212.0
2016-Aug-20 15:33N 38°41' W 010°20'1211.8
2016-Aug-20 14:33N 38°29' W 010°21'1211.7
2016-Aug-20 13:33N 38°18' W 010°23'1211.6
2016-Aug-20 12:33N 38°06' W 010°25'1211.6
2016-Aug-20 11:33N 37°55' W 010°27'1111.4
2016-Aug-20 10:33N 37°43' W 010°28'1211.6
2016-Aug-20 09:30N 37°31' W 010°30'1311.9
2016-Aug-20 08:27N 37°19' W 010°32'1111.8
2016-Aug-20 07:33N 37°08' W 010°32'2612.1
2016-Aug-20 05:22N 36°42' W 010°34'  

Dump ship's entire track history